sensor_id;sensor_type;location;lat;lon;timestamp;temperature;humidity
43987;DHT22;29650;47.378;8.300;2023-05-24T00:01:09;15.80;99.90
43987;DHT22;29650;47.378;8.300;2023-05-24T00:03:36;15.70;99.90
43987;DHT22;29650;47.378;8.300;2023-05-24T00:06:05;15.60;99.90
43987;DHT22;29650;47.378;8.300;2023-05-24T00:08:32;15.50;99.90
43987;DHT22;29650;47.378;8.300;2023-05-24T00:10:59;15.50;99.90
43987;DHT22;29650;47.378;8.300;2023-05-24T00:13:26;15.80;99.90
43987;DHT22;29650;47.378;8.300;2023-05-24T00:15:53;15.60;99.90
43987;DHT22;29650;47.378;8.300;2023-05-24T00:18:20;15.70;99.90
43987;DHT22;29650;47.378;8.300;2023-05-24T00:20:48;15.50;99.90
43987;DHT22;29650;47.378;8.300;2023-05-24T00:23:17;15.70;99.90
43987;DHT22;29650;47.378;8.300;2023-05-24T00:25:44;15.70;99.90
43987;DHT22;29650;47.378;8.300;2023-05-24T00:28:11;15.70;99.90
43987;DHT22;29650;47.378;8.300;2023-05-24T00:30:38;15.50;99.90
43987;DHT22;29650;47.378;8.300;2023-05-24T00:33:05;15.60;99.90
43987;DHT22;29650;47.378;8.300;2023-05-24T00:35:32;15.40;99.90
43987;DHT22;29650;47.378;8.300;2023-05-24T00:37:59;15.40;99.90
43987;DHT22;29650;47.378;8.300;2023-05-24T00:40:27;15.30;99.90
43987;DHT22;29650;47.378;8.300;2023-05-24T00:42:54;15.30;99.90
43987;DHT22;29650;47.378;8.300;2023-05-24T00:45:21;15.50;99.90
43987;DHT22;29650;47.378;8.300;2023-05-24T00:47:48;15.40;99.90
43987;DHT22;29650;47.378;8.300;2023-05-24T00:50:16;15.50;99.90
43987;DHT22;29650;47.378;8.300;2023-05-24T00:52:43;15.10;99.90
43987;DHT22;29650;47.378;8.300;2023-05-24T00:55:10;15.30;99.90
43987;DHT22;29650;47.378;8.300;2023-05-24T00:57:38;15.30;99.90
43987;DHT22;29650;47.378;8.300;2023-05-24T01:00:06;14.90;99.90
43987;DHT22;29650;47.378;8.300;2023-05-24T01:02:37;14.90;99.90
43987;DHT22;29650;47.378;8.300;2023-05-24T01:05:05;15.00;99.90
43987;DHT22;29650;47.378;8.300;2023-05-24T01:07:38;14.70;99.90
43987;DHT22;29650;47.378;8.300;2023-05-24T01:10:13;14.70;99.90
43987;DHT22;29650;47.378;8.300;2023-05-24T01:12:58;14.60;99.90
43987;DHT22;29650;47.378;8.300;2023-05-24T01:15:35;14.80;99.90
43987;DHT22;29650;47.378;8.300;2023-05-24T01:18:06;14.70;99.90
43987;DHT22;29650;47.378;8.300;2023-05-24T01:20:39;15.00;99.90
43987;DHT22;29650;47.378;8.300;2023-05-24T01:23:17;14.90;99.90
43987;DHT22;29650;47.378;8.300;2023-05-24T01:26:07;14.80;99.90
43987;DHT22;29650;47.378;8.300;2023-05-24T01:28:40;14.80;99.90
43987;DHT22;29650;47.378;8.300;2023-05-24T01:31:09;15.00;99.90
43987;DHT22;29650;47.378;8.300;2023-05-24T01:33:40;15.00;99.90
43987;DHT22;29650;47.378;8.300;2023-05-24T01:36:07;15.20;99.90
43987;DHT22;29650;47.378;8.300;2023-05-24T01:38:34;15.00;99.90
43987;DHT22;29650;47.378;8.300;2023-05-24T01:41:09;14.80;99.90
43987;DHT22;29650;47.378;8.300;2023-05-24T01:43:49;14.80;99.90
43987;DHT22;29650;47.378;8.300;2023-05-24T01:46:24;14.70;99.90
43987;DHT22;29650;47.378;8.300;2023-05-24T01:49:05;14.70;99.90
43987;DHT22;29650;47.378;8.300;2023-05-24T01:51:39;14.60;99.90
43987;DHT22;29650;47.378;8.300;2023-05-24T01:54:08;14.60;99.90
43987;DHT22;29650;47.378;8.300;2023-05-24T01:56:35;14.50;99.90
43987;DHT22;29650;47.378;8.300;2023-05-24T01:59:05;14.70;99.90
43987;DHT22;29650;47.378;8.300;2023-05-24T02:01:33;14.80;99.90
43987;DHT22;29650;47.378;8.300;2023-05-24T02:04:00;14.90;99.90
43987;DHT22;29650;47.378;8.300;2023-05-24T02:06:28;14.90;99.90
43987;DHT22;29650;47.378;8.300;2023-05-24T02:08:55;14.90;99.90
43987;DHT22;29650;47.378;8.300;2023-05-24T02:11:22;14.90;99.90
43987;DHT22;29650;47.378;8.300;2023-05-24T02:13:49;14.70;99.90
43987;DHT22;29650;47.378;8.300;2023-05-24T02:16:17;14.30;99.90
43987;DHT22;29650;47.378;8.300;2023-05-24T02:18:44;13.40;99.90
43987;DHT22;29650;47.378;8.300;2023-05-24T02:21:11;14.40;99.90
43987;DHT22;29650;47.378;8.300;2023-05-24T02:23:38;14.30;99.90
43987;DHT22;29650;47.378;8.300;2023-05-24T02:26:05;14.20;99.90
43987;DHT22;29650;47.378;8.300;2023-05-24T02:28:36;14.50;99.90
43987;DHT22;29650;47.378;8.300;2023-05-24T02:31:03;14.50;99.90
43987;DHT22;29650;47.378;8.300;2023-05-24T02:33:32;14.50;99.90
43987;DHT22;29650;47.378;8.300;2023-05-24T02:36:00;14.30;99.90
43987;DHT22;29650;47.378;8.300;2023-05-24T02:38:27;14.50;99.90
43987;DHT22;29650;47.378;8.300;2023-05-24T02:40:53;14.50;99.90
43987;DHT22;29650;47.378;8.300;2023-05-24T02:43:21;14.40;99.90
43987;DHT22;29650;47.378;8.300;2023-05-24T02:45:48;14.40;99.90
43987;DHT22;29650;47.378;8.300;2023-05-24T02:48:15;14.50;99.90
43987;DHT22;29650;47.378;8.300;2023-05-24T02:50:43;14.50;99.90
43987;DHT22;29650;47.378;8.300;2023-05-24T02:53:10;14.30;99.90
43987;DHT22;29650;47.378;8.300;2023-05-24T02:55:37;14.30;99.90
43987;DHT22;29650;47.378;8.300;2023-05-24T02:58:04;14.50;99.90
43987;DHT22;29650;47.378;8.300;2023-05-24T03:00:32;14.60;99.90
43987;DHT22;29650;47.378;8.300;2023-05-24T03:03:00;14.60;99.90
43987;DHT22;29650;47.378;8.300;2023-05-24T03:05:28;14.50;99.90
43987;DHT22;29650;47.378;8.300;2023-05-24T03:07:56;14.50;99.90
43987;DHT22;29650;47.378;8.300;2023-05-24T03:10:24;14.50;99.90
43987;DHT22;29650;47.378;8.300;2023-05-24T03:12:51;14.40;99.90
43987;DHT22;29650;47.378;8.300;2023-05-24T03:15:18;14.40;99.90
43987;DHT22;29650;47.378;8.300;2023-05-24T03:17:45;14.40;99.90
43987;DHT22;29650;47.378;8.300;2023-05-24T03:20:12;14.50;99.90
43987;DHT22;29650;47.378;8.300;2023-05-24T03:22:40;14.50;99.90
43987;DHT22;29650;47.378;8.300;2023-05-24T03:25:09;14.40;99.90
43987;DHT22;29650;47.378;8.300;2023-05-24T03:27:36;14.40;99.90
43987;DHT22;29650;47.378;8.300;2023-05-24T03:30:04;14.50;99.90
43987;DHT22;29650;47.378;8.300;2023-05-24T03:32:31;14.40;99.90
43987;DHT22;29650;47.378;8.300;2023-05-24T03:34:58;14.40;99.90
43987;DHT22;29650;47.378;8.300;2023-05-24T03:37:26;14.30;99.90
43987;DHT22;29650;47.378;8.300;2023-05-24T03:39:53;14.30;99.90
43987;DHT22;29650;47.378;8.300;2023-05-24T03:42:21;14.30;99.90
43987;DHT22;29650;47.378;8.300;2023-05-24T03:44:48;14.30;99.90
43987;DHT22;29650;47.378;8.300;2023-05-24T03:47:15;14.30;99.90
43987;DHT22;29650;47.378;8.300;2023-05-24T03:49:42;14.40;99.90
43987;DHT22;29650;47.378;8.300;2023-05-24T03:52:09;14.20;99.90
43987;DHT22;29650;47.378;8.300;2023-05-24T03:54:36;14.30;99.90
43987;DHT22;29650;47.378;8.300;2023-05-24T03:57:05;14.40;99.90
43987;DHT22;29650;47.378;8.300;2023-05-24T03:59:34;14.50;99.90
43987;DHT22;29650;47.378;8.300;2023-05-24T04:02:01;14.50;99.90
43987;DHT22;29650;47.378;8.300;2023-05-24T04:04:29;14.40;99.90
43987;DHT22;29650;47.378;8.300;2023-05-24T04:06:56;14.50;99.90
43987;DHT22;29650;47.378;8.300;2023-05-24T04:09:23;14.50;99.90
43987;DHT22;29650;47.378;8.300;2023-05-24T04:11:50;14.50;99.90
43987;DHT22;29650;47.378;8.300;2023-05-24T04:14:17;14.50;99.90
43987;DHT22;29650;47.378;8.300;2023-05-24T04:16:45;14.30;99.90
43987;DHT22;29650;47.378;8.300;2023-05-24T04:19:12;14.40;99.90
43987;DHT22;29650;47.378;8.300;2023-05-24T04:21:39;14.40;99.90
43987;DHT22;29650;47.378;8.300;2023-05-24T04:24:07;14.30;99.90
43987;DHT22;29650;47.378;8.300;2023-05-24T04:26:34;14.40;99.90
43987;DHT22;29650;47.378;8.300;2023-05-24T04:29:02;14.30;99.90
43987;DHT22;29650;47.378;8.300;2023-05-24T04:31:29;14.50;99.90
43987;DHT22;29650;47.378;8.300;2023-05-24T04:33:59;14.30;99.90
43987;DHT22;29650;47.378;8.300;2023-05-24T04:36:26;14.20;99.90
43987;DHT22;29650;47.378;8.300;2023-05-24T04:38:55;14.40;99.90
43987;DHT22;29650;47.378;8.300;2023-05-24T04:41:27;14.30;99.90
43987;DHT22;29650;47.378;8.300;2023-05-24T04:43:56;14.40;99.90
43987;DHT22;29650;47.378;8.300;2023-05-24T04:46:24;14.30;99.90
43987;DHT22;29650;47.378;8.300;2023-05-24T04:48:51;14.10;99.90
43987;DHT22;29650;47.378;8.300;2023-05-24T04:51:21;14.20;99.90
43987;DHT22;29650;47.378;8.300;2023-05-24T04:53:48;14.40;99.90
43987;DHT22;29650;47.378;8.300;2023-05-24T04:56:15;14.30;99.90
43987;DHT22;29650;47.378;8.300;2023-05-24T04:58:42;14.30;99.90
43987;DHT22;29650;47.378;8.300;2023-05-24T05:01:09;14.20;99.90
43987;DHT22;29650;47.378;8.300;2023-05-24T05:03:36;14.10;99.90
43987;DHT22;29650;47.378;8.300;2023-05-24T05:06:03;14.20;99.90
43987;DHT22;29650;47.378;8.300;2023-05-24T05:08:32;14.00;99.90
43987;DHT22;29650;47.378;8.300;2023-05-24T05:10:59;14.10;99.90
43987;DHT22;29650;47.378;8.300;2023-05-24T05:13:26;14.20;99.90
43987;DHT22;29650;47.378;8.300;2023-05-24T05:15:53;14.20;99.90
43987;DHT22;29650;47.378;8.300;2023-05-24T05:18:20;14.40;99.90
43987;DHT22;29650;47.378;8.300;2023-05-24T05:20:47;14.50;99.90
43987;DHT22;29650;47.378;8.300;2023-05-24T05:23:14;14.40;99.90
43987;DHT22;29650;47.378;8.300;2023-05-24T05:25:42;14.40;99.90
43987;DHT22;29650;47.378;8.300;2023-05-24T05:28:09;14.30;99.90
43987;DHT22;29650;47.378;8.300;2023-05-24T05:30:36;14.30;99.90
43987;DHT22;29650;47.378;8.300;2023-05-24T05:33:03;14.20;99.90
43987;DHT22;29650;47.378;8.300;2023-05-24T05:35:30;14.20;99.90
43987;DHT22;29650;47.378;8.300;2023-05-24T05:37:58;14.20;99.90
43987;DHT22;29650;47.378;8.300;2023-05-24T05:40:25;14.30;99.90
43987;DHT22;29650;47.378;8.300;2023-05-24T05:42:53;14.30;99.90
43987;DHT22;29650;47.378;8.300;2023-05-24T05:45:23;14.50;99.90
43987;DHT22;29650;47.378;8.300;2023-05-24T05:47:50;14.30;99.90
43987;DHT22;29650;47.378;8.300;2023-05-24T05:50:17;14.20;99.90
43987;DHT22;29650;47.378;8.300;2023-05-24T05:52:44;14.30;99.90
43987;DHT22;29650;47.378;8.300;2023-05-24T05:55:11;14.40;99.90
43987;DHT22;29650;47.378;8.300;2023-05-24T05:57:38;14.60;99.90
43987;DHT22;29650;47.378;8.300;2023-05-24T06:00:08;14.50;99.90
43987;DHT22;29650;47.378;8.300;2023-05-24T06:02:35;14.50;99.90
43987;DHT22;29650;47.378;8.300;2023-05-24T06:05:02;14.50;99.90
43987;DHT22;29650;47.378;8.300;2023-05-24T06:07:29;14.40;99.90
43987;DHT22;29650;47.378;8.300;2023-05-24T06:09:56;14.30;99.90
43987;DHT22;29650;47.378;8.300;2023-05-24T06:12:23;14.30;99.90
43987;DHT22;29650;47.378;8.300;2023-05-24T06:14:51;14.10;99.90
43987;DHT22;29650;47.378;8.300;2023-05-24T06:17:26;14.10;99.90
43987;DHT22;29650;47.378;8.300;2023-05-24T06:19:53;14.20;99.90
43987;DHT22;29650;47.378;8.300;2023-05-24T06:22:20;14.10;99.90
43987;DHT22;29650;47.378;8.300;2023-05-24T06:24:47;14.00;99.90
43987;DHT22;29650;47.378;8.300;2023-05-24T06:27:15;13.90;99.90
43987;DHT22;29650;47.378;8.300;2023-05-24T06:29:41;13.70;99.90
43987;DHT22;29650;47.378;8.300;2023-05-24T06:32:08;13.60;99.90
43987;DHT22;29650;47.378;8.300;2023-05-24T06:34:37;13.60;99.90
43987;DHT22;29650;47.378;8.300;2023-05-24T06:37:04;13.50;99.90
43987;DHT22;29650;47.378;8.300;2023-05-24T06:39:34;13.60;99.90
43987;DHT22;29650;47.378;8.300;2023-05-24T06:42:02;13.40;99.90
43987;DHT22;29650;47.378;8.300;2023-05-24T06:44:29;13.60;99.90
43987;DHT22;29650;47.378;8.300;2023-05-24T06:46:59;13.70;99.90
43987;DHT22;29650;47.378;8.300;2023-05-24T06:49:37;13.50;99.90
43987;DHT22;29650;47.378;8.300;2023-05-24T06:52:04;13.50;99.90
43987;DHT22;29650;47.378;8.300;2023-05-24T06:54:33;13.70;99.90
43987;DHT22;29650;47.378;8.300;2023-05-24T06:57:02;13.60;99.90
43987;DHT22;29650;47.378;8.300;2023-05-24T06:59:32;13.70;99.90
43987;DHT22;29650;47.378;8.300;2023-05-24T07:01:59;13.60;99.90
43987;DHT22;29650;47.378;8.300;2023-05-24T07:04:26;13.60;99.90
43987;DHT22;29650;47.378;8.300;2023-05-24T07:06:55;13.70;99.90
43987;DHT22;29650;47.378;8.300;2023-05-24T07:09:22;13.50;99.90
43987;DHT22;29650;47.378;8.300;2023-05-24T07:11:49;13.70;99.90
43987;DHT22;29650;47.378;8.300;2023-05-24T07:14:16;13.70;99.90
43987;DHT22;29650;47.378;8.300;2023-05-24T07:16:43;13.90;99.90
43987;DHT22;29650;47.378;8.300;2023-05-24T07:19:11;13.90;99.90
43987;DHT22;29650;47.378;8.300;2023-05-24T07:21:38;13.90;99.90
43987;DHT22;29650;47.378;8.300;2023-05-24T07:24:07;13.70;99.90
43987;DHT22;29650;47.378;8.300;2023-05-24T07:26:34;13.80;99.90
43987;DHT22;29650;47.378;8.300;2023-05-24T07:29:01;13.90;99.90
43987;DHT22;29650;47.378;8.300;2023-05-24T07:31:28;13.90;99.90
43987;DHT22;29650;47.378;8.300;2023-05-24T07:33:57;14.00;99.90
43987;DHT22;29650;47.378;8.300;2023-05-24T07:36:24;13.90;99.90
43987;DHT22;29650;47.378;8.300;2023-05-24T07:38:56;14.00;99.90
43987;DHT22;29650;47.378;8.300;2023-05-24T07:41:26;14.10;99.90
43987;DHT22;29650;47.378;8.300;2023-05-24T07:43:54;14.10;99.90
43987;DHT22;29650;47.378;8.300;2023-05-24T07:46:21;13.80;99.90
43987;DHT22;29650;47.378;8.300;2023-05-24T07:48:48;13.80;99.90
43987;DHT22;29650;47.378;8.300;2023-05-24T07:51:15;14.00;99.90
43987;DHT22;29650;47.378;8.300;2023-05-24T07:53:42;13.90;99.90
43987;DHT22;29650;47.378;8.300;2023-05-24T07:56:09;13.80;99.90
43987;DHT22;29650;47.378;8.300;2023-05-24T07:58:38;13.90;99.90
43987;DHT22;29650;47.378;8.300;2023-05-24T08:01:06;13.80;99.90
43987;DHT22;29650;47.378;8.300;2023-05-24T08:03:33;13.80;99.90
43987;DHT22;29650;47.378;8.300;2023-05-24T08:06:01;13.90;99.90
43987;DHT22;29650;47.378;8.300;2023-05-24T08:08:28;14.00;99.90
43987;DHT22;29650;47.378;8.300;2023-05-24T08:10:56;13.80;99.90
43987;DHT22;29650;47.378;8.300;2023-05-24T08:13:23;13.70;99.90
43987;DHT22;29650;47.378;8.300;2023-05-24T08:15:51;13.80;99.90
43987;DHT22;29650;47.378;8.300;2023-05-24T08:18:21;13.90;99.90
43987;DHT22;29650;47.378;8.300;2023-05-24T08:20:48;14.10;99.90
43987;DHT22;29650;47.378;8.300;2023-05-24T08:23:15;14.00;99.90
43987;DHT22;29650;47.378;8.300;2023-05-24T08:25:42;14.10;99.90
43987;DHT22;29650;47.378;8.300;2023-05-24T08:28:09;14.20;99.90
43987;DHT22;29650;47.378;8.300;2023-05-24T08:30:36;14.40;99.90
43987;DHT22;29650;47.378;8.300;2023-05-24T08:33:05;14.40;99.90
43987;DHT22;29650;47.378;8.300;2023-05-24T08:35:32;14.10;99.90
43987;DHT22;29650;47.378;8.300;2023-05-24T08:38:00;14.10;99.90
43987;DHT22;29650;47.378;8.300;2023-05-24T08:40:27;14.20;99.90
43987;DHT22;29650;47.378;8.300;2023-05-24T08:42:54;14.10;99.90
43987;DHT22;29650;47.378;8.300;2023-05-24T08:45:25;14.00;99.90
43987;DHT22;29650;47.378;8.300;2023-05-24T08:47:56;14.00;99.90
43987;DHT22;29650;47.378;8.300;2023-05-24T08:50:24;14.20;99.90
43987;DHT22;29650;47.378;8.300;2023-05-24T08:52:52;14.30;99.90
43987;DHT22;29650;47.378;8.300;2023-05-24T08:55:20;14.30;99.90
43987;DHT22;29650;47.378;8.300;2023-05-24T08:57:47;14.30;99.90
43987;DHT22;29650;47.378;8.300;2023-05-24T09:00:16;14.50;99.90
43987;DHT22;29650;47.378;8.300;2023-05-24T09:02:45;14.40;99.90
43987;DHT22;29650;47.378;8.300;2023-05-24T09:05:13;14.60;99.90
43987;DHT22;29650;47.378;8.300;2023-05-24T09:07:43;14.70;99.90
43987;DHT22;29650;47.378;8.300;2023-05-24T09:10:10;14.50;99.90
43987;DHT22;29650;47.378;8.300;2023-05-24T09:12:39;14.60;99.90
43987;DHT22;29650;47.378;8.300;2023-05-24T09:15:10;14.70;99.90
43987;DHT22;29650;47.378;8.300;2023-05-24T09:17:37;14.80;99.90
43987;DHT22;29650;47.378;8.300;2023-05-24T09:20:06;14.70;99.90
43987;DHT22;29650;47.378;8.300;2023-05-24T09:22:36;14.80;99.90
43987;DHT22;29650;47.378;8.300;2023-05-24T09:25:05;14.80;99.90
43987;DHT22;29650;47.378;8.300;2023-05-24T09:27:34;14.90;99.90
43987;DHT22;29650;47.378;8.300;2023-05-24T09:30:02;14.90;99.90
43987;DHT22;29650;47.378;8.300;2023-05-24T09:32:30;14.90;99.90
43987;DHT22;29650;47.378;8.300;2023-05-24T09:34:57;15.00;99.90
43987;DHT22;29650;47.378;8.300;2023-05-24T09:37:25;15.10;99.90
43987;DHT22;29650;47.378;8.300;2023-05-24T09:39:54;15.10;99.90
43987;DHT22;29650;47.378;8.300;2023-05-24T09:42:25;15.00;99.90
43987;DHT22;29650;47.378;8.300;2023-05-24T09:44:59;14.90;99.90
43987;DHT22;29650;47.378;8.300;2023-05-24T09:47:28;15.00;99.90
43987;DHT22;29650;47.378;8.300;2023-05-24T09:49:55;14.70;99.90
43987;DHT22;29650;47.378;8.300;2023-05-24T09:52:22;14.70;99.90
43987;DHT22;29650;47.378;8.300;2023-05-24T09:54:50;14.80;99.90
43987;DHT22;29650;47.378;8.300;2023-05-24T09:57:17;14.90;99.90
43987;DHT22;29650;47.378;8.300;2023-05-24T09:59:48;15.10;99.90
43987;DHT22;29650;47.378;8.300;2023-05-24T10:02:15;15.30;99.90
43987;DHT22;29650;47.378;8.300;2023-05-24T10:04:45;15.20;99.90
43987;DHT22;29650;47.378;8.300;2023-05-24T10:07:13;15.10;99.90
43987;DHT22;29650;47.378;8.300;2023-05-24T10:09:41;15.20;99.90
43987;DHT22;29650;47.378;8.300;2023-05-24T10:12:10;15.10;99.90
43987;DHT22;29650;47.378;8.300;2023-05-24T10:14:37;15.10;99.90
43987;DHT22;29650;47.378;8.300;2023-05-24T10:17:06;14.90;99.90
43987;DHT22;29650;47.378;8.300;2023-05-24T10:19:33;14.90;99.90
43987;DHT22;29650;47.378;8.300;2023-05-24T10:22:04;14.90;99.90
43987;DHT22;29650;47.378;8.300;2023-05-24T10:24:34;14.90;99.90
43987;DHT22;29650;47.378;8.300;2023-05-24T10:27:05;14.90;99.90
43987;DHT22;29650;47.378;8.300;2023-05-24T10:29:43;14.80;99.90
43987;DHT22;29650;47.378;8.300;2023-05-24T10:32:17;14.80;99.90
43987;DHT22;29650;47.378;8.300;2023-05-24T10:34:45;14.60;99.90
43987;DHT22;29650;47.378;8.300;2023-05-24T10:37:13;14.60;99.90
43987;DHT22;29650;47.378;8.300;2023-05-24T10:39:42;14.70;99.90
43987;DHT22;29650;47.378;8.300;2023-05-24T10:42:11;14.60;99.90
43987;DHT22;29650;47.378;8.300;2023-05-24T10:44:38;14.70;99.90
43987;DHT22;29650;47.378;8.300;2023-05-24T10:47:07;14.60;99.90
43987;DHT22;29650;47.378;8.300;2023-05-24T10:49:37;14.60;99.90
43987;DHT22;29650;47.378;8.300;2023-05-24T10:52:07;14.50;99.90
43987;DHT22;29650;47.378;8.300;2023-05-24T10:54:35;14.60;99.90
43987;DHT22;29650;47.378;8.300;2023-05-24T10:57:03;14.60;99.90
43987;DHT22;29650;47.378;8.300;2023-05-24T10:59:34;14.90;99.90
43987;DHT22;29650;47.378;8.300;2023-05-24T11:02:05;14.80;99.90
43987;DHT22;29650;47.378;8.300;2023-05-24T11:04:38;14.70;99.90
43987;DHT22;29650;47.378;8.300;2023-05-24T11:07:08;14.60;99.90
43987;DHT22;29650;47.378;8.300;2023-05-24T11:09:37;14.70;99.90
43987;DHT22;29650;47.378;8.300;2023-05-24T11:12:13;14.70;99.90
43987;DHT22;29650;47.378;8.300;2023-05-24T11:14:41;14.70;99.90
43987;DHT22;29650;47.378;8.300;2023-05-24T11:17:12;14.60;99.90
43987;DHT22;29650;47.378;8.300;2023-05-24T11:19:46;14.50;99.90
43987;DHT22;29650;47.378;8.300;2023-05-24T11:22:15;14.50;99.90
43987;DHT22;29650;47.378;8.300;2023-05-24T11:24:43;14.50;99.90
43987;DHT22;29650;47.378;8.300;2023-05-24T11:27:11;14.70;99.90
43987;DHT22;29650;47.378;8.300;2023-05-24T11:29:42;14.90;99.90
43987;DHT22;29650;47.378;8.300;2023-05-24T11:32:13;15.00;99.90
43987;DHT22;29650;47.378;8.300;2023-05-24T11:34:41;15.00;99.90
43987;DHT22;29650;47.378;8.300;2023-05-24T11:37:12;15.10;99.90
43987;DHT22;29650;47.378;8.300;2023-05-24T11:39:39;15.10;99.90
43987;DHT22;29650;47.378;8.300;2023-05-24T11:42:07;15.00;99.90
43987;DHT22;29650;47.378;8.300;2023-05-24T11:44:35;15.20;99.90
43987;DHT22;29650;47.378;8.300;2023-05-24T11:47:06;15.20;99.90
43987;DHT22;29650;47.378;8.300;2023-05-24T11:49:33;14.90;99.90
43987;DHT22;29650;47.378;8.300;2023-05-24T11:52:00;15.10;99.90
43987;DHT22;29650;47.378;8.300;2023-05-24T11:54:30;15.30;99.90
43987;DHT22;29650;47.378;8.300;2023-05-24T11:56:59;15.20;99.90
43987;DHT22;29650;47.378;8.300;2023-05-24T11:59:27;15.00;99.90
43987;DHT22;29650;47.378;8.300;2023-05-24T12:01:59;15.00;99.90
43987;DHT22;29650;47.378;8.300;2023-05-24T12:04:27;15.00;99.90
43987;DHT22;29650;47.378;8.300;2023-05-24T12:06:55;15.00;99.90
43987;DHT22;29650;47.378;8.300;2023-05-24T12:09:22;15.10;99.90
43987;DHT22;29650;47.378;8.300;2023-05-24T12:11:51;15.20;99.90
43987;DHT22;29650;47.378;8.300;2023-05-24T12:14:21;15.50;99.90
43987;DHT22;29650;47.378;8.300;2023-05-24T12:16:53;15.60;99.90
43987;DHT22;29650;47.378;8.300;2023-05-24T12:19:21;15.50;99.80
43987;DHT22;29650;47.378;8.300;2023-05-24T12:21:54;15.70;99.90
43987;DHT22;29650;47.378;8.300;2023-05-24T12:24:22;15.90;99.90
43987;DHT22;29650;47.378;8.300;2023-05-24T12:26:51;16.00;99.90
43987;DHT22;29650;47.378;8.300;2023-05-24T12:29:18;16.10;98.20
43987;DHT22;29650;47.378;8.300;2023-05-24T12:31:47;16.00;98.40
43987;DHT22;29650;47.378;8.300;2023-05-24T12:34:16;15.90;99.10
43987;DHT22;29650;47.378;8.300;2023-05-24T12:36:44;16.00;97.70
43987;DHT22;29650;47.378;8.300;2023-05-24T12:39:18;16.10;97.40
43987;DHT22;29650;47.378;8.300;2023-05-24T12:41:51;16.30;99.90
43987;DHT22;29650;47.378;8.300;2023-05-24T12:44:22;16.20;99.50
43987;DHT22;29650;47.378;8.300;2023-05-24T12:46:49;16.10;97.20
43987;DHT22;29650;47.378;8.300;2023-05-24T12:49:17;16.00;99.30
43987;DHT22;29650;47.378;8.300;2023-05-24T12:51:44;15.90;97.70
43987;DHT22;29650;47.378;8.300;2023-05-24T12:54:11;15.90;99.10
43987;DHT22;29650;47.378;8.300;2023-05-24T12:56:38;15.90;97.70
43987;DHT22;29650;47.378;8.300;2023-05-24T12:59:07;15.80;97.80
43987;DHT22;29650;47.378;8.300;2023-05-24T13:01:34;15.70;99.90
43987;DHT22;29650;47.378;8.300;2023-05-24T13:04:01;15.40;98.90
43987;DHT22;29650;47.378;8.300;2023-05-24T13:06:28;15.20;98.80
43987;DHT22;29650;47.378;8.300;2023-05-24T13:08:55;15.00;99.00
43987;DHT22;29650;47.378;8.300;2023-05-24T13:11:22;15.00;99.90
43987;DHT22;29650;47.378;8.300;2023-05-24T13:13:50;14.90;99.40
43987;DHT22;29650;47.378;8.300;2023-05-24T13:16:19;14.90;98.50
43987;DHT22;29650;47.378;8.300;2023-05-24T13:18:46;14.90;98.90
43987;DHT22;29650;47.378;8.300;2023-05-24T13:21:13;14.90;99.90
43987;DHT22;29650;47.378;8.300;2023-05-24T13:23:40;15.00;99.70
43987;DHT22;29650;47.378;8.300;2023-05-24T13:26:09;15.00;97.40
43987;DHT22;29650;47.378;8.300;2023-05-24T13:28:36;15.10;97.30
43987;DHT22;29650;47.378;8.300;2023-05-24T13:31:03;15.20;97.30
43987;DHT22;29650;47.378;8.300;2023-05-24T13:33:31;15.20;97.90
43987;DHT22;29650;47.378;8.300;2023-05-24T13:35:59;14.60;97.50
43987;DHT22;29650;47.378;8.300;2023-05-24T13:38:26;15.20;99.10
43987;DHT22;29650;47.378;8.300;2023-05-24T13:40:53;15.30;98.40
43987;DHT22;29650;47.378;8.300;2023-05-24T13:43:21;15.40;97.40
43987;DHT22;29650;47.378;8.300;2023-05-24T13:45:48;14.80;98.60
43987;DHT22;29650;47.378;8.300;2023-05-24T13:48:15;15.20;97.30
43987;DHT22;29650;47.378;8.300;2023-05-24T13:50:43;15.20;96.60
43987;DHT22;29650;47.378;8.300;2023-05-24T13:53:10;15.30;96.70
43987;DHT22;29650;47.378;8.300;2023-05-24T13:55:38;15.30;96.80
43987;DHT22;29650;47.378;8.300;2023-05-24T13:58:05;15.50;95.50
43987;DHT22;29650;47.378;8.300;2023-05-24T14:00:32;15.40;96.20
43987;DHT22;29650;47.378;8.300;2023-05-24T14:03:01;15.40;96.40
43987;DHT22;29650;47.378;8.300;2023-05-24T14:05:29;15.50;95.80
43987;DHT22;29650;47.378;8.300;2023-05-24T14:07:58;15.50;96.30
43987;DHT22;29650;47.378;8.300;2023-05-24T14:10:31;15.60;95.50
43987;DHT22;29650;47.378;8.300;2023-05-24T14:12:58;15.70;96.10
43987;DHT22;29650;47.378;8.300;2023-05-24T14:15:25;15.60;95.50
43987;DHT22;29650;47.378;8.300;2023-05-24T14:17:52;15.60;93.70
43987;DHT22;29650;47.378;8.300;2023-05-24T14:20:19;15.40;93.70
43987;DHT22;29650;47.378;8.300;2023-05-24T14:22:46;15.60;93.10
43987;DHT22;29650;47.378;8.300;2023-05-24T14:25:15;15.60;93.80
43987;DHT22;29650;47.378;8.300;2023-05-24T14:27:42;15.60;93.30
43987;DHT22;29650;47.378;8.300;2023-05-24T14:30:12;15.70;94.90
43987;DHT22;29650;47.378;8.300;2023-05-24T14:32:39;15.80;93.40
43987;DHT22;29650;47.378;8.300;2023-05-24T14:35:07;15.90;93.10
43987;DHT22;29650;47.378;8.300;2023-05-24T14:37:34;15.90;92.00
43987;DHT22;29650;47.378;8.300;2023-05-24T14:40:03;16.10;90.80
43987;DHT22;29650;47.378;8.300;2023-05-24T14:42:31;16.10;90.40
43987;DHT22;29650;47.378;8.300;2023-05-24T14:44:58;16.20;90.40
43987;DHT22;29650;47.378;8.300;2023-05-24T14:47:25;16.20;89.60
43987;DHT22;29650;47.378;8.300;2023-05-24T14:49:52;16.20;89.90
43987;DHT22;29650;47.378;8.300;2023-05-24T14:52:20;16.20;89.70
43987;DHT22;29650;47.378;8.300;2023-05-24T14:54:47;16.20;89.00
43987;DHT22;29650;47.378;8.300;2023-05-24T14:57:14;16.20;89.80
43987;DHT22;29650;47.378;8.300;2023-05-24T14:59:42;16.20;88.70
43987;DHT22;29650;47.378;8.300;2023-05-24T15:02:09;16.00;90.80
43987;DHT22;29650;47.378;8.300;2023-05-24T15:04:36;15.90;91.30
43987;DHT22;29650;47.378;8.300;2023-05-24T15:07:03;15.90;91.90
43987;DHT22;29650;47.378;8.300;2023-05-24T15:09:30;15.90;92.00
43987;DHT22;29650;47.378;8.300;2023-05-24T15:11:57;15.70;91.20
43987;DHT22;29650;47.378;8.300;2023-05-24T15:14:24;15.80;92.50
43987;DHT22;29650;47.378;8.300;2023-05-24T15:16:52;15.60;92.50
43987;DHT22;29650;47.378;8.300;2023-05-24T15:19:19;15.60;92.90
43987;DHT22;29650;47.378;8.300;2023-05-24T15:21:47;15.40;91.90
43987;DHT22;29650;47.378;8.300;2023-05-24T15:24:14;15.50;91.70
43987;DHT22;29650;47.378;8.300;2023-05-24T15:26:41;15.60;91.70
43987;DHT22;29650;47.378;8.300;2023-05-24T15:29:08;15.60;92.50
43987;DHT22;29650;47.378;8.300;2023-05-24T15:31:35;15.50;91.60
43987;DHT22;29650;47.378;8.300;2023-05-24T15:34:03;15.30;92.20
43987;DHT22;29650;47.378;8.300;2023-05-24T15:36:30;15.20;92.10